Time;durP1;ratioP1;P1;durP2;ratioP2;P2;SDS_P1;SDS_P2;PMS_P1;PMS_P2;Temp;Humidity;BMP_temperature;BMP_pressure;BME280_temperature;BME280_humidity;BME280_pressure;Samples;Min_cycle;Max_cycle;Signal;HPM_P1;HPM_P2
2021/06/16 00:01:45;;;;;;;1.40;1.00;;;23.80;47.60;;;;;;5012206;28;20468;-65
2021/06/16 00:04:11;;;;;;;1.43;1.10;;;23.80;47.70;;;;;;5012313;28;20393;-67
2021/06/16 00:06:37;;;;;;;1.95;1.20;;;23.80;47.60;;;;;;5012129;28;20460;-67
2021/06/16 00:09:04;;;;;;;2.10;0.90;;;23.70;47.60;;;;;;5010577;28;20409;-66
2021/06/16 00:11:31;;;;;;;1.52;1.00;;;23.80;47.70;;;;;;5011826;28;20789;-67
2021/06/16 00:13:57;;;;;;;1.80;1.00;;;23.80;47.70;;;;;;5012035;28;20392;-66
2021/06/16 00:16:23;;;;;;;1.70;1.00;;;23.80;47.70;;;;;;5012108;28;20393;-66
2021/06/16 00:18:48;;;;;;;1.35;1.00;;;23.80;47.70;;;;;;5011956;28;20397;-66
2021/06/16 00:21:15;;;;;;;1.40;1.00;;;23.80;47.60;;;;;;5011795;28;20400;-67
2021/06/16 00:23:41;;;;;;;1.90;1.10;;;23.70;47.60;;;;;;5011812;28;20861;-66
2021/06/16 00:26:08;;;;;;;1.50;1.10;;;23.70;47.60;;;;;;5011821;28;20448;-67
2021/06/16 00:28:34;;;;;;;1.60;1.10;;;23.70;47.60;;;;;;5011644;28;20479;-67
2021/06/16 00:30:59;;;;;;;1.98;1.25;;;23.70;47.60;;;;;;5011802;28;20487;-67
2021/06/16 00:33:25;;;;;;;1.70;1.20;;;23.70;47.60;;;;;;5011365;28;20389;-67
2021/06/16 00:35:50;;;;;;;1.50;1.08;;;23.70;47.70;;;;;;5011193;28;20939;-67
2021/06/16 00:38:17;;;;;;;1.40;1.10;;;23.70;47.60;;;;;;5011752;28;20392;-67
2021/06/16 00:40:43;;;;;;;2.67;1.30;;;23.70;47.70;;;;;;5011725;28;20873;-67
2021/06/16 00:43:09;;;;;;;2.00;1.10;;;23.70;48.30;;;;;;5011502;28;20392;-66
2021/06/16 00:45:35;;;;;;;1.65;1.00;;;23.70;47.80;;;;;;5010285;28;20420;-67
2021/06/16 00:48:01;;;;;;;1.50;1.00;;;23.70;47.80;;;;;;5011427;28;20397;-66
2021/06/16 00:50:35;;;;;;;1.42;1.00;;;23.60;47.70;;;;;;5013024;28;20880;-67
2021/06/16 00:53:02;;;;;;;1.67;1.07;;;23.60;47.70;;;;;;5015645;28;20404;-67
2021/06/16 00:55:28;;;;;;;1.40;1.05;;;23.60;47.80;;;;;;5014879;28;20494;-67
2021/06/16 00:57:55;;;;;;;2.10;1.10;;;23.60;47.80;;;;;;5015166;28;20889;-67
2021/06/16 01:00:25;;;;;;;2.20;1.10;;;23.60;47.80;;;;;;5014266;28;20754;-66
2021/06/16 01:03:01;;;;;;;1.60;1.10;;;23.60;47.80;;;;;;5014167;28;20884;-65
2021/06/16 01:05:35;;;;;;;1.30;1.07;;;23.60;47.80;;;;;;5014940;28;20420;-66
2021/06/16 01:08:02;;;;;;;1.50;1.07;;;23.60;47.80;;;;;;5015407;28;20408;-66
2021/06/16 01:10:34;;;;;;;1.77;1.02;;;23.60;47.80;;;;;;5014216;28;20479;-66
2021/06/16 01:13:03;;;;;;;1.60;1.10;;;23.60;47.80;;;;;;5015423;28;20473;-66
2021/06/16 01:15:39;;;;;;;1.70;1.05;;;23.60;47.80;;;;;;5013630;28;20384;-66
2021/06/16 01:18:05;;;;;;;2.00;1.13;;;23.60;47.80;;;;;;5015299;28;20377;-66
2021/06/16 01:20:39;;;;;;;1.40;1.05;;;23.60;47.90;;;;;;5015282;28;20960;-67
2021/06/16 01:23:07;;;;;;;1.50;1.00;;;23.50;47.80;;;;;;5015271;28;20396;-67
2021/06/16 01:26:17;;;;;;;2.08;1.13;;;23.50;47.80;;;;;;5014902;28;20443;-67
2021/06/16 01:28:43;;;;;;;1.73;1.10;;;23.50;47.80;;;;;;4973795;28;20466;-66
2021/06/16 01:31:12;;;;;;;1.48;1.00;;;23.50;47.90;;;;;;5008743;28;20780;-66
2021/06/16 01:33:39;;;;;;;1.75;1.23;;;23.50;47.80;;;;;;5014657;28;20480;-64
2021/06/16 01:36:06;;;;;;;1.25;1.00;;;23.50;47.80;;;;;;5013665;28;20401;-65
2021/06/16 01:38:32;;;;;;;2.55;1.20;;;23.50;47.90;;;;;;5014947;28;20937;-65
2021/06/16 01:41:01;;;;;;;1.40;1.00;;;23.50;47.90;;;;;;5014736;28;20420;-64
2021/06/16 01:43:27;;;;;;;2.60;1.20;;;23.50;47.80;;;;;;5014343;28;20405;-65
2021/06/16 01:45:56;;;;;;;1.70;1.10;;;23.50;47.90;;;;;;4995069;28;20410;-64
2021/06/16 01:48:22;;;;;;;1.95;1.17;;;23.50;47.90;;;;;;4995131;28;20441;-66
2021/06/16 01:50:51;;;;;;;1.50;1.00;;;23.50;47.90;;;;;;4995040;28;20917;-64
2021/06/16 01:53:18;;;;;;;1.58;1.00;;;23.50;47.80;;;;;;4994758;28;20403;-64
2021/06/16 01:55:46;;;;;;;1.50;1.10;;;23.50;47.80;;;;;;4994881;28;20610;-64
2021/06/16 01:58:13;;;;;;;1.73;1.00;;;23.50;47.80;;;;;;4994927;28;20391;-64
2021/06/16 02:00:40;;;;;;;1.60;1.10;;;23.50;47.80;;;;;;4993536;28;20909;-64
2021/06/16 02:03:07;;;;;;;1.48;1.10;;;23.40;47.80;;;;;;4994837;28;20395;-64
2021/06/16 02:05:33;;;;;;;1.50;1.10;;;23.40;47.80;;;;;;4993296;28;20415;-65
2021/06/16 02:08:04;;;;;;;1.75;1.20;;;23.40;47.80;;;;;;4994675;28;20391;-65
2021/06/16 02:10:32;;;;;;;1.15;0.80;;;23.40;47.80;;;;;;4994747;28;20517;-63
2021/06/16 02:13:00;;;;;;;1.50;1.10;;;23.40;47.80;;;;;;4994717;28;20390;-66
2021/06/16 02:15:34;;;;;;;1.90;1.17;;;23.40;47.80;;;;;;4994205;28;20771;-64
2021/06/16 02:18:01;;;;;;;1.95;0.93;;;23.40;47.80;;;;;;4994601;28;20457;-66
2021/06/16 02:20:27;;;;;;;1.90;1.17;;;23.40;47.80;;;;;;4994719;28;20478;-66
2021/06/16 02:22:53;;;;;;;1.95;1.20;;;23.40;47.90;;;;;;4994379;28;20391;-67
2021/06/16 02:25:19;;;;;;;1.60;1.20;;;23.40;47.80;;;;;;4994109;28;20403;-66
2021/06/16 02:27:45;;;;;;;1.43;1.03;;;23.40;47.80;;;;;;4994128;28;20399;-66
2021/06/16 02:30:12;;;;;;;1.60;1.10;;;23.40;47.70;;;;;;4993183;28;20441;-66
2021/06/16 02:32:37;;;;;;;1.95;1.15;;;23.40;47.90;;;;;;4994188;28;20402;-66
2021/06/16 02:35:05;;;;;;;2.60;1.42;;;23.40;47.70;;;;;;4994321;28;20736;-66
2021/06/16 02:37:32;;;;;;;1.40;1.00;;;23.30;48.30;;;;;;4993794;28;21057;-67
2021/06/16 02:40:04;;;;;;;1.30;1.00;;;23.30;47.70;;;;;;4992812;28;20755;-67
2021/06/16 02:42:30;;;;;;;1.40;1.10;;;23.30;47.70;;;;;;4994137;28;20394;-66
2021/06/16 02:44:56;;;;;;;1.50;1.10;;;23.30;47.70;;;;;;5005913;28;20501;-65
2021/06/16 02:47:23;;;;;;;2.10;1.20;;;23.30;47.70;;;;;;5011783;28;20449;-66
2021/06/16 02:49:55;;;;;;;1.50;1.15;;;23.30;47.70;;;;;;5012077;28;20971;-67
2021/06/16 02:52:22;;;;;;;1.77;1.20;;;23.30;47.70;;;;;;5012242;28;20892;-66
2021/06/16 02:55:02;;;;;;;1.42;1.00;;;23.30;47.70;;;;;;5012185;28;20795;-66
2021/06/16 02:57:31;;;;;;;1.85;1.17;;;23.30;48.30;;;;;;5012809;28;20404;-67
2021/06/16 02:59:58;;;;;;;1.65;1.20;;;23.30;48.40;;;;;;5013388;28;20393;-66
2021/06/16 03:02:26;;;;;;;1.67;1.15;;;23.20;47.80;;;;;;5013347;28;20885;-66
2021/06/16 03:04:53;;;;;;;1.40;1.05;;;23.20;47.80;;;;;;5013276;28;20450;-66
2021/06/16 03:07:20;;;;;;;1.40;1.00;;;23.20;47.70;;;;;;5013035;28;20413;-66
2021/06/16 03:09:48;;;;;;;3.20;1.17;;;23.20;47.70;;;;;;5012927;28;20400;-66
2021/06/16 03:12:16;;;;;;;2.08;0.98;;;23.20;48.00;;;;;;5013059;28;20389;-66
2021/06/16 03:14:42;;;;;;;2.55;1.20;;;23.20;48.10;;;;;;5012519;28;20396;-66
2021/06/16 03:17:10;;;;;;;2.38;1.20;;;23.20;48.00;;;;;;5013149;28;20384;-67
2021/06/16 03:19:39;;;;;;;3.17;1.40;;;23.20;48.10;;;;;;5011143;28;20408;-66
2021/06/16 03:22:06;;;;;;;3.35;1.58;;;23.20;48.40;;;;;;4996366;28;20475;-67
2021/06/16 03:24:35;;;;;;;2.67;1.60;;;23.20;48.20;;;;;;4993940;28;20429;-67
2021/06/16 03:27:01;;;;;;;5.70;1.60;;;23.30;48.50;;;;;;4993353;28;20455;-67
2021/06/16 03:29:27;;;;;;;3.10;1.52;;;23.30;49.20;;;;;;4992809;28;20485;-65
2021/06/16 03:31:55;;;;;;;4.05;1.40;;;23.40;49.30;;;;;;5008972;28;20392;-67
2021/06/16 03:34:21;;;;;;;2.85;1.40;;;23.40;49.20;;;;;;5012593;28;20399;-65
2021/06/16 03:36:48;;;;;;;5.75;1.50;;;23.40;49.50;;;;;;5012556;28;20476;-66
2021/06/16 03:39:14;;;;;;;6.72;1.40;;;23.40;49.50;;;;;;5012550;28;20785;-67
2021/06/16 03:41:42;;;;;;;3.75;1.50;;;23.40;50.00;;;;;;5012283;28;20392;-67
2021/06/16 03:44:08;;;;;;;3.90;1.60;;;23.50;50.30;;;;;;5012587;28;20542;-67
2021/06/16 03:46:36;;;;;;;7.72;1.60;;;23.50;50.40;;;;;;5012513;28;20428;-67
2021/06/16 03:49:05;;;;;;;3.85;1.77;;;23.50;50.80;;;;;;5012426;28;20396;-67
2021/06/16 03:51:34;;;;;;;5.50;1.95;;;23.50;51.70;;;;;;5012005;28;20397;-66
2021/06/16 03:54:00;;;;;;;4.05;1.90;;;23.50;50.90;;;;;;5012269;28;20400;-67
2021/06/16 03:56:27;;;;;;;5.53;2.03;;;23.50;50.10;;;;;;5011076;28;20429;-67
2021/06/16 03:58:53;;;;;;;8.02;2.28;;;23.40;49.50;;;;;;5012132;28;20389;-67
2021/06/16 04:01:19;;;;;;;4.47;1.83;;;23.40;49.00;;;;;;5012065;28;20401;-67
2021/06/16 04:03:46;;;;;;;5.38;1.92;;;23.30;48.30;;;;;;5011889;28;20389;-67
2021/06/16 04:06:15;;;;;;;9.27;2.28;;;23.30;48.50;;;;;;5010895;28;20492;-67
2021/06/16 04:08:45;;;;;;;5.70;1.80;;;23.30;48.20;;;;;;5010807;28;20958;-67
2021/06/16 04:11:14;;;;;;;5.45;1.83;;;23.30;48.70;;;;;;5011852;28;20381;-63
2021/06/16 04:13:41;;;;;;;5.18;1.98;;;23.30;48.30;;;;;;5011694;28;20924;-64
2021/06/16 04:16:08;;;;;;;6.65;2.17;;;23.30;48.10;;;;;;5012045;28;20443;-64
2021/06/16 04:18:35;;;;;;;4.05;1.80;;;23.20;48.40;;;;;;5011965;28;20439;-63
2021/06/16 04:21:01;;;;;;;4.23;1.70;;;23.20;48.00;;;;;;5011896;28;20468;-65
2021/06/16 04:23:27;;;;;;;6.47;1.90;;;23.30;47.90;;;;;;5011661;28;20818;-65
2021/06/16 04:25:53;;;;;;;5.28;1.80;;;23.20;47.70;;;;;;5010581;28;20415;-64
2021/06/16 04:28:18;;;;;;;4.60;1.77;;;23.20;47.60;;;;;;5011938;28;20892;-63
2021/06/16 04:30:44;;;;;;;3.25;1.67;;;23.20;47.60;;;;;;5011823;28;20388;-64
2021/06/16 04:33:10;;;;;;;4.00;1.80;;;23.30;47.70;;;;;;5011894;28;20396;-64
2021/06/16 04:35:36;;;;;;;2.47;1.58;;;23.30;47.70;;;;;;5011450;28;20420;-67
2021/06/16 04:38:02;;;;;;;4.15;1.50;;;23.30;47.70;;;;;;5011832;28;20439;-66
2021/06/16 04:40:27;;;;;;;3.77;1.57;;;23.30;47.60;;;;;;5011781;28;20819;-65
2021/06/16 04:42:53;;;;;;;3.45;1.58;;;23.30;47.60;;;;;;5011294;28;20393;-63
2021/06/16 04:45:19;;;;;;;2.77;1.50;;;23.30;47.60;;;;;;5010848;28;20448;-64
2021/06/16 04:47:44;;;;;;;3.38;1.60;;;23.30;47.60;;;;;;5011475;28;20407;-64
2021/06/16 04:50:14;;;;;;;4.13;1.80;;;23.30;47.70;;;;;;5011757;28;20446;-66
2021/06/16 04:52:40;;;;;;;2.78;1.50;;;23.20;47.60;;;;;;5011634;28;20433;-64
2021/06/16 04:55:08;;;;;;;2.80;1.50;;;23.30;47.60;;;;;;5011664;28;20427;-66
2021/06/16 04:57:33;;;;;;;2.53;1.63;;;23.30;47.60;;;;;;5011310;28;20397;-65
2021/06/16 04:59:59;;;;;;;2.30;1.55;;;23.30;47.60;;;;;;5011589;28;20443;-68
2021/06/16 05:02:25;;;;;;;2.33;1.30;;;23.30;47.60;;;;;;5011433;28;20410;-64
2021/06/16 05:04:50;;;;;;;3.67;1.75;;;23.20;47.50;;;;;;5011513;28;20404;-63
2021/06/16 05:07:16;;;;;;;4.20;1.50;;;23.30;47.70;;;;;;5021770;28;20427;-63
2021/06/16 05:09:42;;;;;;;4.88;1.85;;;23.30;47.80;;;;;;5029020;28;20393;-65
2021/06/16 05:12:08;;;;;;;4.43;1.63;;;23.30;47.90;;;;;;5029560;28;20390;-65
2021/06/16 05:14:34;;;;;;;5.25;1.63;;;23.30;47.90;;;;;;5031080;28;20419;-65
2021/06/16 05:17:00;;;;;;;3.80;1.50;;;23.30;48.00;;;;;;5030871;28;20427;-63
2021/06/16 05:19:25;;;;;;;4.77;1.60;;;23.30;48.00;;;;;;5030821;28;20488;-63
2021/06/16 05:21:51;;;;;;;3.97;1.40;;;23.30;48.00;;;;;;5030909;28;20379;-65
2021/06/16 05:24:18;;;;;;;2.50;1.33;;;23.30;48.20;;;;;;5031168;28;20387;-64
2021/06/16 05:26:44;;;;;;;2.25;1.30;;;23.30;48.00;;;;;;5031054;28;20419;-63
2021/06/16 05:29:10;;;;;;;3.15;1.30;;;23.30;48.00;;;;;;5031107;28;20387;-66
2021/06/16 05:31:37;;;;;;;3.67;1.30;;;23.30;48.00;;;;;;5030658;28;20445;-66
2021/06/16 05:34:04;;;;;;;2.75;1.27;;;23.30;48.00;;;;;;5031025;28;20379;-66
2021/06/16 05:36:30;;;;;;;2.33;1.30;;;23.30;48.00;;;;;;5031185;28;20428;-64
2021/06/16 05:38:56;;;;;;;2.53;1.30;;;23.30;48.20;;;;;;5034698;28;20433;-66
2021/06/16 05:41:22;;;;;;;3.23;1.30;;;23.30;48.10;;;;;;5034492;28;20474;-65
2021/06/16 05:43:48;;;;;;;3.05;1.35;;;23.30;48.60;;;;;;5033850;28;20495;-64
2021/06/16 05:46:14;;;;;;;2.47;1.30;;;23.30;48.10;;;;;;5034546;28;20521;-65
2021/06/16 05:48:39;;;;;;;2.73;1.30;;;23.30;48.30;;;;;;5034502;28;20399;-65
2021/06/16 05:51:05;;;;;;;2.42;1.30;;;23.40;48.40;;;;;;5034470;28;20399;-63
2021/06/16 05:53:31;;;;;;;2.88;1.35;;;23.40;48.30;;;;;;5033991;28;20383;-64
2021/06/16 05:55:57;;;;;;;2.40;1.20;;;23.40;48.30;;;;;;5034228;28;20395;-66
2021/06/16 05:58:22;;;;;;;2.75;1.48;;;23.40;48.30;;;;;;5033987;28;20387;-65
2021/06/16 06:00:48;;;;;;;2.97;1.50;;;23.40;48.30;;;;;;5033767;28;20855;-63
2021/06/16 06:03:14;;;;;;;2.72;1.40;;;23.40;48.40;;;;;;5034245;28;20386;-64
2021/06/16 06:05:40;;;;;;;2.93;1.60;;;23.40;48.30;;;;;;5048800;28;20502;-66
2021/06/16 06:08:06;;;;;;;1.80;1.20;;;23.40;48.40;;;;;;5034157;28;20502;-63
2021/06/16 06:10:32;;;;;;;2.08;1.40;;;23.40;48.20;;;;;;5034009;28;20410;-67
2021/06/16 06:12:57;;;;;;;2.07;1.30;;;23.50;48.30;;;;;;5033967;28;20733;-66
2021/06/16 06:15:23;;;;;;;2.42;1.48;;;23.50;48.20;;;;;;5033745;28;20457;-65
2021/06/16 06:17:50;;;;;;;2.10;1.13;;;23.50;48.30;;;;;;5033720;28;20387;-63
2021/06/16 06:20:17;;;;;;;2.63;1.33;;;23.50;48.20;;;;;;5033919;28;20481;-63
2021/06/16 06:22:42;;;;;;;2.03;1.30;;;23.50;48.30;;;;;;5033662;28;20415;-64
2021/06/16 06:25:09;;;;;;;1.87;1.20;;;23.50;48.30;;;;;;5033865;28;20845;-64
2021/06/16 06:27:35;;;;;;;1.90;1.30;;;23.50;48.30;;;;;;5033708;28;20415;-63
2021/06/16 06:30:02;;;;;;;1.90;1.20;;;23.50;48.30;;;;;;5033812;28;20717;-66
2021/06/16 06:32:27;;;;;;;2.03;1.15;;;23.50;48.30;;;;;;5034013;28;20811;-65
2021/06/16 06:34:53;;;;;;;2.53;1.38;;;23.50;48.20;;;;;;5033554;28;20907;-63
2021/06/16 06:37:19;;;;;;;2.30;1.30;;;23.50;48.30;;;;;;5033797;28;20387;-64
2021/06/16 06:39:46;;;;;;;2.33;1.30;;;23.50;48.30;;;;;;5033009;28;20391;-66
2021/06/16 06:42:14;;;;;;;1.65;1.30;;;23.50;48.30;;;;;;5033646;28;20383;-63
2021/06/16 06:44:40;;;;;;;2.00;1.50;;;23.50;48.30;;;;;;5032996;28;20452;-64
2021/06/16 06:47:05;;;;;;;2.10;1.40;;;23.50;48.30;;;;;;5033072;28;20415;-66
2021/06/16 06:49:31;;;;;;;1.83;1.17;;;23.50;48.20;;;;;;5031172;28;20389;-65
2021/06/16 06:51:57;;;;;;;2.10;1.30;;;23.60;48.30;;;;;;5033054;28;20883;-63
2021/06/16 06:54:22;;;;;;;1.58;1.20;;;23.60;48.30;;;;;;5033360;28;20436;-65
2021/06/16 06:56:48;;;;;;;1.47;1.07;;;23.60;48.20;;;;;;5031792;28;20396;-64
2021/06/16 06:59:14;;;;;;;1.95;1.20;;;23.60;48.20;;;;;;5033238;28;20383;-64
2021/06/16 07:01:39;;;;;;;1.70;1.10;;;23.60;48.20;;;;;;5032695;28;20883;-65
2021/06/16 07:04:05;;;;;;;2.40;1.33;;;23.60;48.20;;;;;;5033171;28;20387;-66
2021/06/16 07:06:31;;;;;;;2.10;1.30;;;23.60;48.20;;;;;;5033021;28;20421;-65
2021/06/16 07:08:58;;;;;;;2.15;1.30;;;23.60;48.20;;;;;;5032927;28;20470;-64
2021/06/16 07:11:24;;;;;;;2.10;1.30;;;23.60;48.20;;;;;;5032977;28;20391;-66
2021/06/16 07:13:50;;;;;;;2.00;1.30;;;23.60;48.20;;;;;;5032487;28;20407;-67
2021/06/16 07:16:16;;;;;;;2.05;1.13;;;23.60;48.30;;;;;;5031406;28;20478;-64
2021/06/16 07:18:41;;;;;;;2.28;1.40;;;23.60;48.10;;;;;;5032850;28;20482;-63
2021/06/16 07:21:08;;;;;;;2.10;1.20;;;23.60;48.20;;;;;;5032857;28;20883;-65
2021/06/16 07:23:34;;;;;;;1.92;1.27;;;23.60;48.20;;;;;;5032543;28;20417;-63
2021/06/16 07:26:00;;;;;;;1.73;1.30;;;23.60;48.20;;;;;;5032316;28;20411;-65
2021/06/16 07:28:25;;;;;;;2.50;1.33;;;23.60;48.20;;;;;;5032621;28;20407;-64
2021/06/16 07:30:51;;;;;;;2.07;1.33;;;23.60;48.10;;;;;;5031898;28;20431;-66
2021/06/16 07:33:17;;;;;;;1.85;1.23;;;23.60;48.20;;;;;;5032224;28;20391;-64
2021/06/16 07:35:44;;;;;;;1.80;1.30;;;23.60;48.10;;;;;;5032050;28;20427;-66
2021/06/16 07:38:11;;;;;;;1.55;1.10;;;23.60;48.00;;;;;;5032381;28;20403;-63
2021/06/16 07:40:36;;;;;;;1.48;1.10;;;23.60;48.00;;;;;;5032357;28;20494;-63
2021/06/16 07:43:03;;;;;;;1.90;1.00;;;23.60;48.10;;;;;;5032380;28;20419;-66
2021/06/16 07:45:29;;;;;;;1.50;1.10;;;23.60;48.20;;;;;;5030314;28;20438;-66
2021/06/16 07:47:55;;;;;;;1.65;1.10;;;23.60;48.00;;;;;;5031982;28;20406;-64
2021/06/16 07:50:21;;;;;;;1.90;1.20;;;23.60;48.10;;;;;;5030962;28;20395;-64
2021/06/16 07:52:46;;;;;;;1.93;1.23;;;23.60;48.20;;;;;;5047484;28;20402;-66
2021/06/16 07:55:12;;;;;;;2.13;1.10;;;23.60;48.10;;;;;;5030864;28;20396;-64
2021/06/16 07:57:39;;;;;;;1.70;1.10;;;23.60;48.10;;;;;;5030591;28;20537;-66
2021/06/16 08:00:06;;;;;;;1.70;1.20;;;23.60;48.00;;;;;;5031593;28;20403;-63
2021/06/16 08:02:32;;;;;;;1.90;1.20;;;23.70;48.00;;;;;;5032031;28;20396;-64
2021/06/16 08:04:58;;;;;;;1.57;1.20;;;23.60;48.00;;;;;;5047279;28;20401;-64
2021/06/16 08:07:25;;;;;;;2.00;1.20;;;23.60;48.00;;;;;;5031939;28;20914;-63
2021/06/16 08:09:50;;;;;;;1.85;1.15;;;23.70;48.10;;;;;;5031340;28;20387;-63
2021/06/16 08:12:16;;;;;;;1.40;1.20;;;23.60;48.10;;;;;;5031933;28;20391;-63
2021/06/16 08:14:43;;;;;;;2.00;1.20;;;23.70;47.90;;;;;;5031814;28;20384;-63
2021/06/16 08:17:09;;;;;;;1.83;1.30;;;23.70;48.00;;;;;;5032083;28;20724;-63
2021/06/16 08:19:36;;;;;;;1.88;1.10;;;23.70;48.00;;;;;;5031592;28;20383;-66
2021/06/16 08:22:04;;;;;;;1.33;1.00;;;23.60;47.70;;;;;;5031589;28;20395;-62
2021/06/16 08:24:29;;;;;;;1.70;1.10;;;23.70;47.80;;;;;;5031740;28;20375;-63
2021/06/16 08:26:55;;;;;;;1.40;1.00;;;23.70;47.80;;;;;;5031639;28;20498;-64
2021/06/16 08:29:21;;;;;;;1.55;1.20;;;23.70;47.70;;;;;;5031752;28;20382;-63
2021/06/16 08:31:47;;;;;;;1.40;1.00;;;23.70;47.80;;;;;;5031059;28;20398;-64
2021/06/16 08:34:12;;;;;;;1.60;1.10;;;23.70;47.80;;;;;;5031732;28;20449;-63
2021/06/16 08:36:40;;;;;;;1.55;0.93;;;23.70;47.80;;;;;;5031583;28;20898;-63
2021/06/16 08:39:07;;;;;;;2.13;1.10;;;23.70;47.80;;;;;;5031517;28;20391;-64
2021/06/16 08:41:34;;;;;;;1.40;1.05;;;23.70;47.80;;;;;;5031276;28;20395;-64
2021/06/16 08:44:00;;;;;;;1.40;1.10;;;23.70;47.80;;;;;;5031191;28;20399;-63
2021/06/16 08:46:26;;;;;;;2.00;1.17;;;23.70;47.80;;;;;;5030875;28;20442;-62
2021/06/16 08:48:52;;;;;;;1.45;1.20;;;23.70;47.80;;;;;;5013351;28;20873;-63
2021/06/16 08:51:18;;;;;;;1.58;1.23;;;23.70;47.90;;;;;;5031298;28;20427;-64
2021/06/16 08:53:45;;;;;;;1.30;1.10;;;23.70;47.90;;;;;;5031172;28;20397;-64
2021/06/16 08:56:12;;;;;;;1.93;1.10;;;23.70;47.90;;;;;;5031450;28;20402;-63
2021/06/16 08:58:39;;;;;;;1.60;1.20;;;23.70;47.90;;;;;;5031118;28;20395;-63
2021/06/16 09:01:07;;;;;;;1.65;1.30;;;23.70;47.80;;;;;;5031346;28;20444;-63
2021/06/16 09:03:33;;;;;;;1.52;1.00;;;23.70;47.80;;;;;;5029871;28;20399;-63
2021/06/16 09:06:06;;;;;;;1.67;1.20;;;23.70;47.80;;;;;;5030956;28;20887;-63
2021/06/16 09:08:33;;;;;;;1.67;1.25;;;23.70;47.80;;;;;;5031154;28;20894;-63
2021/06/16 09:10:59;;;;;;;1.45;1.10;;;23.70;47.80;;;;;;5030419;28;20387;-63
2021/06/16 09:13:33;;;;;;;1.87;1.10;;;23.70;47.80;;;;;;5035236;28;20441;-63
2021/06/16 09:16:01;;;;;;;1.60;1.17;;;23.70;47.80;;;;;;5034903;28;20430;-63
2021/06/16 09:18:27;;;;;;;1.70;1.27;;;23.70;47.80;;;;;;5035043;28;20386;-63
2021/06/16 09:20:56;;;;;;;1.73;1.20;;;23.70;47.80;;;;;;5034990;28;20382;-63
2021/06/16 09:23:27;;;;;;;1.60;1.10;;;23.70;47.80;;;;;;5035023;28;20509;-65
2021/06/16 09:26:14;;;;;;;2.00;1.23;;;23.70;47.80;;;;;;5034354;28;20501;-63
2021/06/16 09:28:44;;;;;;;1.67;1.15;;;23.70;47.80;;;;;;5033496;28;20980;-64
2021/06/16 09:31:12;;;;;;;2.10;1.17;;;23.70;47.80;;;;;;5034996;28;20391;-65
2021/06/16 09:33:38;;;;;;;1.70;1.30;;;23.70;47.80;;;;;;5034577;28;20395;-64
2021/06/16 09:36:12;;;;;;;1.80;1.40;;;23.70;47.80;;;;;;5034486;28;20422;-64
2021/06/16 09:38:39;;;;;;;1.58;1.10;;;23.70;47.80;;;;;;5034625;28;20410;-64
2021/06/16 09:41:10;;;;;;;2.10;1.20;;;23.70;47.90;;;;;;5034667;28;20425;-63
2021/06/16 09:43:37;;;;;;;1.88;1.35;;;23.70;47.90;;;;;;5049538;28;20403;-63
2021/06/16 09:46:05;;;;;;;1.50;1.10;;;23.70;47.90;;;;;;5034133;28;20418;-66
2021/06/16 09:48:49;;;;;;;2.00;1.40;;;23.70;47.80;;;;;;5034523;28;20981;-63
2021/06/16 09:51:27;;;;;;;1.60;1.27;;;23.70;47.90;;;;;;5034502;28;20379;-63
2021/06/16 09:54:13;;;;;;;1.73;1.30;;;23.70;47.90;;;;;;5033926;28;21241;-63
2021/06/16 09:56:44;;;;;;;2.30;1.30;;;23.70;48.00;;;;;;5034316;28;20387;-64
2021/06/16 09:59:30;;;;;;;2.10;1.10;;;23.60;48.00;;;;;;5034428;28;20391;-62
2021/06/16 10:01:56;;;;;;;1.90;1.40;;;23.70;48.10;;;;;;5033173;28;20431;-63
2021/06/16 10:04:45;;;;;;;1.90;1.30;;;23.60;47.90;;;;;;5033766;28;20395;-64
2021/06/16 10:07:19;;;;;;;1.88;1.20;;;23.70;48.00;;;;;;5033916;28;20819;-63
2021/06/16 10:10:06;;;;;;;1.85;1.50;;;23.70;48.00;;;;;;5033947;28;20390;-63
2021/06/16 10:12:36;;;;;;;1.80;1.30;;;23.70;48.00;;;;;;5034078;28;20747;-62
2021/06/16 10:15:11;;;;;;;1.80;1.40;;;23.70;48.00;;;;;;5033894;28;20781;-63
2021/06/16 10:17:37;;;;;;;1.98;1.40;;;23.70;48.00;;;;;;5033684;28;20954;-63
2021/06/16 10:20:05;;;;;;;1.70;1.20;;;23.70;48.00;;;;;;5033757;28;20418;-62
2021/06/16 10:22:31;;;;;;;1.57;1.17;;;23.70;48.00;;;;;;5033880;28;20383;-62
2021/06/16 10:24:57;;;;;;;1.60;1.30;;;23.70;48.10;;;;;;5033873;28;20770;-63
2021/06/16 10:27:34;;;;;;;1.60;1.30;;;23.70;48.10;;;;;;5033639;28;20451;-63
2021/06/16 10:30:06;;;;;;;2.25;1.33;;;23.60;48.00;;;;;;5033567;28;20399;-63
2021/06/16 10:32:37;;;;;;;1.80;1.33;;;23.70;48.10;;;;;;5033703;28;20437;-63
2021/06/16 10:35:04;;;;;;;1.65;1.30;;;23.60;48.00;;;;;;5033832;28;20399;-62
2021/06/16 10:37:38;;;;;;;1.73;1.33;;;23.70;48.10;;;;;;5033685;28;20423;-64
2021/06/16 10:40:16;;;;;;;1.30;1.00;;;23.60;48.00;;;;;;5033429;28;20436;-63
2021/06/16 10:43:03;;;;;;;1.60;1.20;;;23.60;48.10;;;;;;5033503;28;20375;-63
2021/06/16 10:45:56;;;;;;;1.70;1.30;;;23.70;48.20;;;;;;5033388;28;20469;-63
2021/06/16 10:48:40;;;;;;;2.08;1.17;;;23.60;48.10;;;;;;5033317;28;20493;-62
2021/06/16 10:51:06;;;;;;;1.70;1.23;;;23.60;48.10;;;;;;5033397;28;20395;-63
2021/06/16 10:53:32;;;;;;;1.40;1.10;;;23.60;48.10;;;;;;5033406;28;20383;-63
2021/06/16 10:55:58;;;;;;;1.53;1.20;;;23.60;48.10;;;;;;5048200;28;20431;-62
2021/06/16 10:58:44;;;;;;;1.50;1.23;;;23.70;48.20;;;;;;5032032;28;20434;-62
2021/06/16 11:01:15;;;;;;;1.50;1.20;;;23.60;48.10;;;;;;5031905;28;20407;-62
2021/06/16 11:04:01;;;;;;;1.83;1.20;;;23.60;48.20;;;;;;5032955;28;20867;-62
2021/06/16 11:06:33;;;;;;;1.63;1.10;;;23.60;48.20;;;;;;5032993;28;20882;-62
2021/06/16 11:08:59;;;;;;;1.50;1.10;;;23.60;48.20;;;;;;5033021;28;20379;-62
2021/06/16 11:14:35;;;;;;;1.40;1.10;;;23.60;48.20;;;;;;5032641;28;20430;-62
2021/06/16 11:17:11;;;;;;;1.67;1.30;;;23.60;48.10;;;;;;5032639;28;20548;-63
2021/06/16 11:19:36;;;;;;;1.67;1.20;;;23.60;48.10;;;;;;5047594;28;20395;-62
2021/06/16 11:22:29;;;;;;;2.00;1.40;;;23.60;48.10;;;;;;5032141;28;20398;-63
2021/06/16 11:25:10;;;;;;;1.50;1.25;;;23.70;48.20;;;;;;5030071;28;20410;-62
2021/06/16 11:27:54;;;;;;;1.63;1.23;;;23.70;48.20;;;;;;5032545;28;20903;-62
2021/06/16 11:30:55;;;;;;;1.75;1.20;;;23.60;48.20;;;;;;5032556;28;20387;-62
2021/06/16 11:36:03;;;;;;;2.57;1.50;;;23.60;48.30;;;;;;5031727;28;20911;-63
2021/06/16 11:38:35;;;;;;;2.30;1.17;;;23.60;48.40;;;;;;5032488;28;20391;-66
2021/06/16 11:41:20;;;;;;;1.80;1.10;;;23.70;48.50;;;;;;5031203;28;20391;-66
2021/06/16 11:43:53;;;;;;;3.28;1.30;;;23.70;48.50;;;;;;5031992;28;20470;-63
2021/06/16 11:46:27;;;;;;;2.58;1.40;;;23.70;48.50;;;;;;5032059;28;20418;-64
2021/06/16 11:49:09;;;;;;;3.13;1.55;;;23.70;48.80;;;;;;5032244;28;20387;-63
2021/06/16 11:51:40;;;;;;;2.65;1.38;;;23.70;49.20;;;;;;5021948;28;20446;-63
2021/06/16 11:54:22;;;;;;;2.75;1.50;;;23.70;49.20;;;;;;5012167;28;20381;-64
2021/06/16 11:56:58;;;;;;;1.77;1.30;;;23.80;49.20;;;;;;5012437;28;20492;-63
2021/06/16 11:59:29;;;;;;;2.65;1.60;;;23.80;49.00;;;;;;5012250;28;20444;-66
2021/06/16 12:02:36;;;;;;;2.97;1.40;;;23.80;49.20;;;;;;5011824;28;20911;-63
2021/06/16 12:05:13;;;;;;;3.17;1.50;;;23.80;49.20;;;;;;5011788;28;21066;-63
2021/06/16 12:07:48;;;;;;;2.97;1.50;;;23.80;49.10;;;;;;5012097;28;20417;-64
2021/06/16 12:10:19;;;;;;;2.47;1.33;;;23.80;49.20;;;;;;5011992;28;20696;-63
2021/06/16 12:12:50;;;;;;;1.90;1.40;;;23.80;49.10;;;;;;5012138;28;20431;-63
2021/06/16 12:15:27;;;;;;;3.30;1.42;;;23.80;49.20;;;;;;5012067;28;20397;-63
2021/06/16 12:18:05;;;;;;;1.83;1.30;;;23.80;48.90;;;;;;5011681;28;20773;-64
2021/06/16 12:20:43;;;;;;;3.45;1.30;;;23.80;49.20;;;;;;5011847;28;20773;-63
2021/06/16 12:23:39;;;;;;;2.70;1.50;;;23.90;49.30;;;;;;5010814;28;20968;-63
2021/06/16 12:26:08;;;;;;;2.10;1.45;;;23.90;49.80;;;;;;5011421;28;20413;-64
2021/06/16 12:28:40;;;;;;;2.70;1.30;;;23.90;49.20;;;;;;5012006;28;20440;-63
2021/06/16 12:31:10;;;;;;;2.65;1.50;;;23.90;49.10;;;;;;5010725;28;20475;-63
2021/06/16 12:33:42;;;;;;;2.20;1.25;;;23.90;49.10;;;;;;5011444;28;20801;-63
2021/06/16 12:36:17;;;;;;;2.77;1.37;;;23.90;49.10;;;;;;5010951;28;20593;-63
2021/06/16 12:38:54;;;;;;;2.90;1.40;;;23.90;49.00;;;;;;5011859;28;20397;-64
2021/06/16 12:41:50;;;;;;;1.65;1.38;;;23.90;49.10;;;;;;5011517;28;20393;-63
2021/06/16 12:44:17;;;;;;;2.03;1.40;;;23.90;49.10;;;;;;5011450;28;20766;-63
2021/06/16 12:47:03;;;;;;;3.33;1.42;;;23.90;49.00;;;;;;5009558;28;20420;-63
2021/06/16 12:49:32;;;;;;;3.42;1.30;;;23.90;49.10;;;;;;5010476;28;20428;-63
2021/06/16 12:52:04;;;;;;;4.40;1.30;;;23.90;49.10;;;;;;5007470;28;20438;-62
2021/06/16 12:54:45;;;;;;;2.47;1.30;;;23.90;48.80;;;;;;5008762;28;20968;-64
2021/06/16 12:57:13;;;;;;;4.07;1.63;;;23.90;48.80;;;;;;5011006;28;20383;-63
2021/06/16 12:59:51;;;;;;;3.80;1.40;;;23.90;48.90;;;;;;5010489;28;21097;-63
2021/06/16 13:02:30;;;;;;;2.55;1.50;;;23.90;49.10;;;;;;5011151;28;20404;-63
2021/06/16 13:05:07;;;;;;;3.92;1.40;;;23.90;48.90;;;;;;5011736;28;20412;-64